Terminal Aerodrome Forecast
Issued by NWS

Home | Current Version | Previous Version | Text Only | Print | Product List | Glossary On
Versions: 1 2 3 4 5 6 7 8 9 10 11 12 13 14 15 16
000
FTUS46 KSEW 241100
TAFPAE
TAF
KPAE 241122Z 2412/2512 15012KT P6SM -RA SCT017 OVC025
     FM241500 18014G24KT P6SM -SHRA OVC025
     FM242300 19015KT P6SM VCSH SCT020 BKN040
     FM250500 17007KT P6SM BKN030 BKN050=

USA.gov is the U.S. government's official web portal to all federal, state and local government web resources and services.